createdAt,value
2018-02-14T00:00:58.045Z,68.50
2018-02-14T00:03:27.004Z,68.30
2018-02-14T00:05:56.005Z,68.20
2018-02-14T00:08:25.212Z,68.00
2018-02-14T00:10:54.153Z,67.70
2018-02-14T00:13:23.060Z,67.40
2018-02-14T00:15:52.215Z,67.20
2018-02-14T00:18:21.477Z,67.40
2018-02-14T00:20:50.690Z,67.40
2018-02-14T00:23:19.884Z,67.60
2018-02-14T00:25:48.814Z,68.00
2018-02-14T00:28:17.811Z,68.00
2018-02-14T00:30:46.701Z,67.70
2018-02-14T00:33:15.554Z,67.20
2018-02-14T00:35:44.506Z,68.10
2018-02-14T00:38:13.409Z,68.50
2018-02-14T00:40:42.720Z,68.30
2018-02-14T00:43:11.593Z,67.70
2018-02-14T00:45:40.570Z,67.40
2018-02-14T00:48:09.433Z,68.20
2018-02-14T00:50:38.356Z,67.80
2018-02-14T00:53:08.043Z,68.40
2018-02-14T00:55:37.080Z,68.30
2018-02-14T00:58:06.003Z,68.00
2018-02-14T01:00:35.186Z,68.50
2018-02-14T01:03:04.235Z,67.80
2018-02-14T01:05:34.065Z,67.80
2018-02-14T01:08:03.771Z,68.40
2018-02-14T01:10:32.704Z,68.20
2018-02-14T01:13:01.674Z,68.00
2018-02-14T01:15:30.505Z,68.20
2018-02-14T01:17:59.841Z,67.80
2018-02-14T01:20:35.632Z,67.50
2018-02-14T01:23:04.753Z,67.40
2018-02-14T01:25:33.697Z,67.60
2018-02-14T01:28:02.588Z,67.50
2018-02-14T01:30:31.699Z,67.50
2018-02-14T01:33:00.809Z,67.70
2018-02-14T01:35:29.890Z,67.50
2018-02-14T01:37:59.132Z,66.70
2018-02-14T01:40:28.070Z,66.50
2018-02-14T01:42:56.953Z,66.00
2018-02-14T01:45:25.852Z,66.20
2018-02-14T01:47:55.053Z,66.10
2018-02-14T01:53:20.315Z,66.00
2018-02-14T01:55:49.965Z,66.10
2018-02-14T01:58:19.626Z,66.40
2018-02-14T02:00:48.529Z,66.40
2018-02-14T02:03:17.721Z,66.70
2018-02-14T02:05:47.472Z,66.10
2018-02-14T02:08:17.155Z,65.80
2018-02-14T02:10:45.974Z,65.80
2018-02-14T02:13:14.917Z,65.80
2018-02-14T02:15:43.783Z,65.70
2018-02-14T02:18:12.749Z,65.80
2018-02-14T02:20:42.083Z,65.80
2018-02-14T02:23:11.987Z,64.80
2018-02-14T02:25:40.816Z,64.70
2018-02-14T02:28:09.707Z,64.90
2018-02-14T02:30:38.603Z,64.80
2018-02-14T02:33:07.525Z,64.50
2018-02-14T02:35:37.245Z,64.50
2018-02-14T02:38:06.151Z,64.50
2018-02-14T02:40:35.536Z,64.50
2018-02-14T02:43:05.382Z,64.00
2018-02-14T02:45:34.288Z,63.90
2018-02-14T02:48:03.227Z,64.10
2018-02-14T02:50:32.114Z,63.90
2018-02-14T02:53:01.056Z,63.90
2018-02-14T02:55:29.925Z,63.60
2018-02-14T02:57:58.941Z,63.90
2018-02-14T03:00:28.156Z,63.70
2018-02-14T03:02:57.135Z,63.50
2018-02-14T03:05:26.178Z,63.40
2018-02-14T03:07:55.988Z,63.60
2018-02-14T03:10:24.978Z,63.50
2018-02-14T03:12:54.625Z,63.20
2018-02-14T03:15:23.681Z,63.10
2018-02-14T03:17:52.748Z,62.90
2018-02-14T03:20:21.645Z,62.60
2018-02-14T03:22:50.788Z,62.60
2018-02-14T03:25:19.759Z,62.60
2018-02-14T03:27:49.435Z,62.70
2018-02-14T03:30:18.241Z,62.60
2018-02-14T03:32:47.179Z,62.00
2018-02-14T03:35:16.033Z,62.20
2018-02-14T03:37:45.034Z,61.80
2018-02-14T03:40:13.922Z,61.70
2018-02-14T03:42:43.933Z,61.90
2018-02-14T03:45:13.605Z,61.70
2018-02-14T03:47:42.510Z,61.60
2018-02-14T03:50:11.360Z,62.00
2018-02-14T03:52:40.282Z,62.20
2018-02-14T03:55:09.497Z,61.80
2018-02-14T03:57:39.748Z,62.20
2018-02-14T04:00:08.835Z,62.20
2018-02-14T04:02:37.857Z,62.10
2018-02-14T04:05:06.850Z,61.90
2018-02-14T04:07:36.244Z,61.90
2018-02-14T04:10:05.467Z,62.20
2018-02-14T04:12:34.627Z,62.10
2018-02-14T04:15:04.552Z,61.60
2018-02-14T04:17:33.448Z,61.50
2018-02-14T04:20:02.369Z,61.30
2018-02-14T04:22:31.320Z,60.90
2018-02-14T04:25:00.363Z,61.20
2018-02-14T04:27:29.696Z,60.70
2018-02-14T04:29:59.596Z,60.40
2018-02-14T04:32:28.520Z,60.40
2018-02-14T04:34:58.183Z,60.20
2018-02-14T04:37:27.065Z,60.20
2018-02-14T04:39:56.031Z,60.40
2018-02-14T04:42:25.113Z,60.40
2018-02-14T04:44:54.306Z,60.70
2018-02-14T04:47:23.878Z,60.40
2018-02-14T04:49:53.023Z,60.40
2018-02-14T04:52:21.941Z,60.10
2018-02-14T04:54:51.004Z,60.50
2018-02-14T04:57:19.942Z,60.70
2018-02-14T04:59:49.152Z,60.60
2018-02-14T05:02:18.061Z,60.40
2018-02-14T05:04:47.630Z,60.60
2018-02-14T05:07:16.665Z,60.50
2018-02-14T05:09:45.900Z,60.20
2018-02-14T05:12:14.873Z,60.20
2018-02-14T05:14:44.016Z,60.10
2018-02-14T05:17:12.830Z,60.40
2018-02-14T05:19:41.817Z,59.70
2018-02-14T05:22:10.792Z,59.40
2018-02-14T05:24:40.416Z,59.60
2018-02-14T05:27:09.796Z,59.60
2018-02-14T05:29:38.698Z,59.30
2018-02-14T05:32:07.640Z,59.50
2018-02-14T05:34:36.605Z,59.20
2018-02-14T05:37:05.660Z,59.60
2018-02-14T05:39:34.579Z,59.10
2018-02-14T05:42:04.262Z,59.70
2018-02-14T05:44:33.209Z,59.60
2018-02-14T05:47:02.102Z,59.60
2018-02-14T05:49:31.769Z,59.50
2018-02-14T05:52:00.823Z,59.50
2018-02-14T05:54:30.167Z,58.40
2018-02-14T05:56:59.029Z,58.20
2018-02-14T05:59:28.147Z,58.10
2018-02-14T06:01:57.954Z,57.80
2018-02-14T06:04:26.890Z,57.70
2018-02-14T06:06:55.954Z,57.80
2018-02-14T06:09:25.077Z,57.80
2018-02-14T06:11:55.014Z,58.00
2018-02-14T06:14:24.041Z,58.00
2018-02-14T06:16:52.850Z,57.90
2018-02-14T06:19:21.741Z,58.10
2018-02-14T06:21:51.801Z,57.50
2018-02-14T06:24:20.825Z,57.50
2018-02-14T06:26:50.597Z,57.20
2018-02-14T06:29:19.845Z,57.20
2018-02-14T06:31:48.819Z,56.70
2018-02-14T06:34:17.977Z,57.70
2018-02-14T06:36:46.966Z,57.60
2018-02-14T06:39:15.991Z,58.60
2018-02-14T06:41:45.000Z,56.80
2018-02-14T06:44:14.070Z,57.20
2018-02-14T06:46:43.034Z,56.90
2018-02-14T06:49:12.712Z,57.30
2018-02-14T06:51:41.767Z,57.20
2018-02-14T06:54:10.965Z,57.10
2018-02-14T06:56:39.935Z,57.40
2018-02-14T06:59:09.025Z,56.90
2018-02-14T07:01:38.802Z,56.20
2018-02-14T07:04:07.694Z,56.20
2018-02-14T07:06:36.565Z,57.60
2018-02-14T07:09:05.721Z,58.30
2018-02-14T07:11:35.459Z,56.90
2018-02-14T07:14:04.405Z,57.30
2018-02-14T07:16:33.553Z,57.70
2018-02-14T07:19:02.605Z,57.60
2018-02-14T07:21:31.573Z,58.20
2018-02-14T07:24:00.983Z,57.70
2018-02-14T07:26:30.685Z,57.30
2018-02-14T07:28:59.728Z,57.30
2018-02-14T07:31:29.139Z,57.60
2018-02-14T07:33:58.158Z,58.50
2018-02-14T07:36:27.490Z,57.60
2018-02-14T07:38:56.437Z,56.90
2018-02-14T07:41:25.413Z,57.20
2018-02-14T07:43:54.410Z,56.70
2018-02-14T07:46:23.337Z,57.40
2018-02-14T07:48:52.282Z,56.60
2018-02-14T07:51:21.222Z,56.80
2018-02-14T07:53:50.206Z,57.20
2018-02-14T07:56:19.247Z,57.60
2018-02-14T07:58:49.329Z,57.80
2018-02-14T08:01:18.480Z,57.60
2018-02-14T08:03:47.581Z,58.30
2018-02-14T08:06:16.520Z,57.30
2018-02-14T08:08:46.203Z,56.80
2018-02-14T08:11:15.098Z,56.70
2018-02-14T08:13:44.058Z,57.10
2018-02-14T08:16:13.156Z,57.60
2018-02-14T08:18:42.053Z,57.90
2018-02-14T08:21:11.224Z,58.20
2018-02-14T08:23:40.137Z,58.30
2018-02-14T08:26:09.821Z,58.70
2018-02-14T08:28:38.741Z,58.60
2018-02-14T08:31:07.698Z,58.40
2018-02-14T08:33:37.257Z,56.60
2018-02-14T08:36:06.420Z,57.60
2018-02-14T08:38:35.376Z,57.40
2018-02-14T08:41:04.301Z,57.20
2018-02-14T08:43:33.231Z,57.50
2018-02-14T08:46:02.124Z,58.50
2018-02-14T08:48:30.975Z,59.00
2018-02-14T08:50:59.906Z,58.60
2018-02-14T08:53:29.190Z,58.60
2018-02-14T08:55:58.109Z,59.20
2018-02-14T08:58:27.158Z,60.00
2018-02-14T09:00:56.117Z,59.80
2018-02-14T09:03:26.076Z,62.10
2018-02-14T09:05:55.433Z,62.00
2018-02-14T09:08:24.582Z,61.80
2018-02-14T09:10:53.568Z,61.60
2018-02-14T09:13:22.442Z,59.90
2018-02-14T09:15:51.343Z,59.90
2018-02-14T09:18:20.441Z,59.10
2018-02-14T09:20:49.251Z,59.20
2018-02-14T09:23:18.321Z,58.40
2018-02-14T09:25:47.980Z,58.70
2018-02-14T09:28:16.972Z,58.80
2018-02-14T09:30:46.130Z,58.50
2018-02-14T09:33:15.042Z,58.30
2018-02-14T09:35:44.018Z,58.70
2018-02-14T09:38:12.906Z,58.70
2018-02-14T09:40:41.817Z,58.50
2018-02-14T09:43:10.929Z,57.90
2018-02-14T09:45:39.936Z,57.30
2018-02-14T09:48:10.064Z,58.70
2018-02-14T09:50:39.025Z,58.70
2018-02-14T09:53:08.008Z,59.10
2018-02-14T09:55:37.085Z,59.00
2018-02-14T09:58:06.013Z,58.80
2018-02-14T10:00:35.371Z,57.60
2018-02-14T10:03:05.250Z,58.00
2018-02-14T10:05:34.374Z,58.00
2018-02-14T10:08:03.812Z,58.40
2018-02-14T10:10:33.078Z,57.90
2018-02-14T10:13:02.193Z,58.20
2018-02-14T10:15:31.105Z,56.80
2018-02-14T10:18:00.341Z,57.90
2018-02-14T10:20:29.268Z,59.00
2018-02-14T10:22:58.167Z,58.20
2018-02-14T10:25:27.078Z,56.90
2018-02-14T10:27:55.946Z,57.00
2018-02-14T10:30:24.903Z,56.10
2018-02-14T10:32:54.665Z,52.80
2018-02-14T10:35:23.545Z,52.70
2018-02-14T10:37:52.722Z,47.70
2018-02-14T10:40:22.325Z,45.90
2018-02-14T10:42:51.971Z,45.20
2018-02-14T10:45:20.953Z,45.20
2018-02-14T10:47:49.868Z,46.40
2018-02-14T10:50:18.978Z,47.80
2018-02-14T10:52:47.888Z,48.60
2018-02-14T10:55:17.512Z,48.70
2018-02-14T10:57:47.253Z,47.20
2018-02-14T11:03:36.524Z,40.90
2018-02-14T11:06:11.920Z,41.30
2018-02-14T11:08:40.894Z,41.30
2018-02-14T11:11:09.781Z,42.70
2018-02-14T11:13:38.882Z,41.10
2018-02-14T11:16:08.014Z,40.50
2018-02-14T11:18:37.708Z,40.60
2018-02-14T11:21:06.585Z,40.40
2018-02-14T11:23:35.982Z,40.60
2018-02-14T11:26:04.908Z,40.40
2018-02-14T11:28:33.918Z,40.00
2018-02-14T11:31:02.861Z,40.60
2018-02-14T11:33:31.842Z,42.00
2018-02-14T11:36:00.774Z,42.10
2018-02-14T11:38:29.658Z,41.20
2018-02-14T11:40:59.357Z,40.10
2018-02-14T11:43:29.137Z,38.40
2018-02-14T11:45:58.078Z,38.40
2018-02-14T11:48:28.019Z,42.90
2018-02-14T11:50:57.189Z,42.80
2018-02-14T11:53:26.202Z,42.30
2018-02-14T11:55:55.159Z,37.10
2018-02-14T11:58:24.021Z,38.40
2018-02-14T12:00:53.029Z,39.00
2018-02-14T12:03:22.105Z,39.50
2018-02-14T12:05:51.078Z,41.10
2018-02-14T12:08:20.001Z,39.80
2018-02-14T12:10:48.867Z,38.70
2018-02-14T12:13:18.127Z,39.40
2018-02-14T12:15:47.146Z,41.60
2018-02-14T12:18:16.024Z,41.20
2018-02-14T12:20:44.952Z,42.50
2018-02-14T12:23:13.954Z,37.60
2018-02-14T12:25:42.872Z,38.90
2018-02-14T12:28:11.785Z,39.20
2018-02-14T12:30:41.045Z,37.40
2018-02-14T12:33:10.097Z,37.00
2018-02-14T12:35:39.678Z,37.90
2018-02-14T12:38:09.473Z,38.30
2018-02-14T12:40:38.438Z,38.20
2018-02-14T12:43:18.282Z,40.10
2018-02-14T13:06:23.933Z,34.00
2018-02-14T13:08:53.138Z,34.10
2018-02-14T13:11:23.166Z,35.60
2018-02-14T13:13:52.389Z,35.70
2018-02-14T13:16:21.628Z,31.00
2018-02-14T13:18:50.757Z,31.40
2018-02-14T13:21:19.714Z,30.10
2018-02-14T13:23:48.516Z,32.80
2018-02-14T13:26:17.525Z,32.00
2018-02-14T13:28:46.438Z,32.10
2018-02-14T13:31:15.392Z,30.50
2018-02-14T13:33:44.701Z,31.90
2018-02-14T13:36:13.656Z,29.40
2018-02-14T13:38:42.589Z,31.10
2018-02-14T13:41:11.558Z,31.30
2018-02-14T13:43:40.536Z,32.00
2018-02-14T13:46:09.418Z,33.20
2018-02-14T13:48:39.153Z,34.80
2018-02-14T13:51:08.140Z,34.80
2018-02-14T13:53:37.274Z,35.10
2018-02-14T13:56:06.184Z,37.70
2018-02-14T13:58:35.072Z,41.90
2018-02-14T14:01:04.104Z,41.70
2018-02-14T14:03:33.117Z,43.00
2018-02-14T14:06:02.718Z,42.70
2018-02-14T14:08:31.654Z,41.60
2018-02-14T14:11:00.548Z,42.50
2018-02-14T14:42:39.318Z,46.20
2018-02-14T14:45:08.274Z,47.10
2018-02-14T14:47:37.201Z,46.30
2018-02-14T14:50:06.801Z,44.70
2018-02-14T14:52:36.421Z,46.90
2018-02-14T14:55:05.214Z,46.90
2018-02-14T14:57:34.763Z,48.20
2018-02-14T15:00:03.980Z,49.00
2018-02-14T15:02:32.954Z,48.10
2018-02-14T15:05:02.026Z,48.50
2018-02-14T15:07:31.009Z,48.80
2018-02-14T15:09:59.835Z,49.60
2018-02-14T15:12:29.638Z,48.40
2018-02-14T15:14:58.614Z,48.20
2018-02-14T15:17:27.409Z,48.30
2018-02-14T15:19:56.164Z,47.70
2018-02-14T15:22:25.709Z,47.80
2018-02-14T15:24:54.505Z,47.90
2018-02-14T15:27:23.478Z,48.20
2018-02-14T15:29:52.400Z,47.10
2018-02-14T15:32:21.138Z,47.10
2018-02-14T15:34:50.754Z,49.20
2018-02-14T15:37:19.611Z,48.90
2018-02-14T15:39:48.936Z,49.90
2018-02-14T15:42:18.489Z,49.30
2018-02-14T15:44:47.356Z,49.20
2018-02-14T15:47:16.471Z,52.10
2018-02-14T15:49:45.258Z,53.00
2018-02-14T15:54:12.224Z,54.60
2018-02-14T15:56:41.165Z,55.00
2018-02-14T15:59:10.030Z,54.00
2018-02-14T16:01:39.110Z,52.90
2018-02-14T16:04:08.474Z,53.50
2018-02-14T16:06:37.757Z,54.50
2018-02-14T16:09:06.784Z,55.40
2018-02-14T16:11:36.737Z,56.20
2018-02-14T16:14:05.671Z,56.00
2018-02-14T16:16:34.510Z,54.70
2018-02-14T16:19:03.382Z,54.30
2018-02-14T16:24:08.505Z,53.80
2018-02-14T16:26:37.350Z,52.90
2018-02-14T16:29:06.155Z,51.90
2018-02-14T16:31:35.270Z,50.30
2018-02-14T16:34:04.076Z,50.10
2018-02-14T16:36:32.901Z,52.70
2018-02-14T16:39:01.932Z,55.90
2018-02-14T16:41:30.765Z,57.10
2018-02-14T16:44:00.366Z,59.10
2018-02-14T16:46:29.279Z,59.10
2018-02-14T16:48:58.054Z,60.10
2018-02-14T16:51:26.825Z,61.50
2018-02-14T16:53:59.807Z,63.70
2018-02-14T16:56:29.569Z,67.10
2018-02-14T16:58:58.386Z,67.10
2018-02-14T17:01:27.268Z,68.40
2018-02-14T17:03:56.845Z,67.00
2018-02-14T17:06:25.691Z,67.00
2018-02-14T17:08:54.469Z,64.60
2018-02-14T17:11:23.233Z,63.20
2018-02-14T17:13:52.786Z,62.60
2018-02-14T17:16:21.649Z,62.60
2018-02-14T17:18:51.394Z,62.00
2018-02-14T17:21:22.200Z,59.40
2018-02-14T17:23:55.574Z,59.20
2018-02-14T17:26:29.050Z,60.40
2018-02-14T17:28:58.914Z,56.20
2018-02-14T17:31:28.462Z,56.40
2018-02-14T17:34:00.269Z,53.10
2018-02-14T17:36:30.123Z,53.00
2018-02-14T17:38:59.484Z,51.20
2018-02-14T17:41:28.389Z,51.10
2018-02-14T17:43:57.114Z,51.60
2018-02-14T17:46:25.879Z,51.90
2018-02-14T17:48:55.473Z,51.70
2018-02-14T17:51:24.710Z,51.70
2018-02-14T17:53:53.632Z,51.70
2018-02-14T17:56:22.418Z,51.70
2018-02-14T17:58:52.058Z,51.20
2018-02-14T18:01:20.882Z,51.70
2018-02-14T18:03:50.750Z,50.20
2018-02-14T18:06:19.798Z,50.00
2018-02-14T18:08:49.613Z,50.30
2018-02-14T18:11:18.491Z,50.60
2018-02-14T18:13:47.553Z,50.90
2018-02-14T18:16:17.151Z,50.90
2018-02-14T18:18:46.059Z,51.00
2018-02-14T18:21:15.046Z,50.10
2018-02-14T18:23:43.895Z,51.10
2018-02-14T18:26:13.417Z,50.50
2018-02-14T18:28:42.457Z,50.40
2018-02-14T18:31:11.278Z,51.10
2018-02-14T18:33:41.094Z,51.60
2018-02-14T18:36:10.085Z,51.50
2018-02-14T18:38:39.266Z,50.80
2018-02-14T18:41:08.152Z,51.10
2018-02-14T18:43:37.769Z,50.50
2018-02-14T18:46:06.713Z,50.50
2018-02-14T18:48:35.696Z,51.30
2018-02-14T18:51:04.511Z,51.60
2018-02-14T18:53:34.277Z,51.80
2018-02-14T18:56:03.260Z,51.80
2018-02-14T18:58:32.953Z,52.50
2018-02-14T19:01:01.853Z,52.40
2018-02-14T19:03:31.004Z,51.20
2018-02-14T19:06:01.676Z,51.90
2018-02-14T19:08:30.806Z,53.00
2018-02-14T19:10:59.579Z,53.00
2018-02-14T19:13:29.245Z,52.80
2018-02-14T19:15:58.113Z,52.80
2018-02-14T19:18:26.900Z,54.20
2018-02-14T19:20:55.907Z,51.10
2018-02-14T19:23:25.467Z,51.50
2018-02-14T19:25:55.273Z,51.00
2018-02-14T19:28:24.830Z,51.70
2018-02-14T19:30:53.683Z,51.70
2018-02-14T19:33:23.276Z,52.30
2018-02-14T19:35:51.990Z,52.30
2018-02-14T19:38:20.924Z,51.90
2018-02-14T19:40:49.752Z,51.10
2018-02-14T19:43:19.594Z,51.80
2018-02-14T19:45:48.421Z,51.90
2018-02-14T19:48:17.143Z,51.50
2018-02-14T19:50:46.142Z,51.60
2018-02-14T19:53:15.434Z,50.70
2018-02-14T19:55:45.177Z,49.90
2018-02-14T19:58:14.317Z,49.80
2018-02-14T20:00:43.609Z,50.70
2018-02-14T20:03:12.501Z,52.20
2018-02-14T20:05:41.588Z,54.80
2018-02-14T20:08:11.474Z,56.40
2018-02-14T20:10:40.595Z,56.40
2018-02-14T20:13:09.470Z,56.40
2018-02-14T20:15:38.467Z,56.30
2018-02-14T20:18:07.588Z,54.60
2018-02-14T20:20:37.238Z,55.40
2018-02-14T20:23:06.408Z,55.30
2018-02-14T20:25:35.208Z,55.20
2018-02-14T20:28:04.760Z,58.90
2018-02-14T20:30:33.581Z,58.90
2018-02-14T20:33:02.484Z,60.90
2018-02-14T20:35:32.225Z,61.60
2018-02-14T20:38:01.063Z,60.70
2018-02-14T20:40:29.897Z,60.80
2018-02-14T20:42:58.863Z,60.60
2018-02-14T20:45:28.418Z,60.90
2018-02-14T20:47:57.324Z,60.90
2018-02-14T20:50:26.118Z,60.10
2018-02-14T20:52:55.536Z,60.60
2018-02-14T20:55:24.679Z,61.80
2018-02-14T20:57:54.455Z,61.90
2018-02-14T21:00:23.229Z,61.90
2018-02-14T21:02:51.929Z,61.80
2018-02-14T21:05:20.711Z,60.30
2018-02-14T21:07:50.321Z,60.10
2018-02-14T21:10:19.281Z,60.10
2018-02-14T21:12:48.996Z,60.50
2018-02-14T21:15:18.005Z,60.50
2018-02-14T21:17:47.612Z,60.60
2018-02-14T21:20:16.553Z,60.60
2018-02-14T21:22:45.318Z,60.00
2018-02-14T21:25:14.886Z,60.20
2018-02-14T21:27:43.761Z,60.10
2018-02-14T21:30:12.717Z,57.90
2018-02-14T21:32:41.552Z,55.00
2018-02-14T21:35:23.666Z,54.20
2018-02-14T21:37:53.185Z,52.60
2018-02-14T21:40:21.943Z,52.20
2018-02-14T21:42:50.772Z,50.80
2018-02-14T21:45:19.584Z,49.50
2018-02-14T21:47:48.381Z,50.10
2018-02-14T21:50:17.299Z,51.70
2018-02-14T21:52:46.997Z,51.70
2018-02-14T21:55:15.785Z,51.70
2018-02-14T21:57:44.788Z,51.00
2018-02-14T22:00:13.775Z,51.60
2018-02-14T22:02:42.882Z,53.50
2018-02-14T22:05:11.922Z,54.80
2018-02-14T22:07:40.733Z,55.60
2018-02-14T22:10:09.668Z,56.40
2018-02-14T22:12:38.483Z,57.90
2018-02-14T22:15:08.175Z,58.80
2018-02-14T22:17:37.352Z,58.80
2018-02-14T22:20:06.332Z,59.70
2018-02-14T22:22:35.640Z,60.20
2018-02-14T22:25:04.441Z,61.90
2018-02-14T22:27:33.245Z,62.40
2018-02-14T22:30:02.442Z,63.00
2018-02-14T22:32:31.350Z,63.60
2018-02-14T22:35:00.273Z,65.00
2018-02-14T22:37:29.145Z,63.60
2018-02-14T22:39:58.862Z,64.00
2018-02-14T22:42:27.759Z,63.90
2018-02-14T22:44:56.715Z,63.90
2018-02-14T22:47:25.827Z,64.10
2018-02-14T22:49:55.407Z,63.80
2018-02-14T22:52:25.050Z,61.70
2018-02-14T22:54:53.840Z,61.60
2018-02-14T22:57:22.668Z,60.40
2018-02-14T22:59:51.464Z,59.70
2018-02-14T23:02:20.286Z,59.70
2018-02-14T23:04:49.190Z,59.80
2018-02-14T23:07:17.986Z,61.80
2018-02-14T23:09:47.918Z,65.10
2018-02-14T23:12:16.697Z,65.10
2018-02-14T23:14:46.435Z,64.10
2018-02-14T23:17:16.345Z,64.90
2018-02-14T23:19:45.265Z,64.10
2018-02-14T23:22:14.073Z,64.90
2018-02-14T23:24:42.849Z,65.60
2018-02-14T23:27:11.701Z,64.60
2018-02-14T23:29:40.400Z,66.70
2018-02-14T23:32:09.323Z,66.90
2018-02-14T23:34:38.109Z,66.50
2018-02-14T23:37:07.632Z,67.20
2018-02-14T23:39:36.771Z,67.00
2018-02-14T23:42:05.616Z,67.30
2018-02-14T23:44:35.149Z,67.50
2018-02-14T23:47:04.296Z,67.40
2018-02-14T23:49:33.041Z,67.50
2018-02-14T23:52:02.251Z,68.00
2018-02-14T23:54:31.045Z,68.50
2018-02-14T23:56:59.786Z,69.10
2018-02-14T23:59:29.548Z,71.60
